메인 페이지
METAR-TAF:

METAR-TAF

공항 :

애틀랜틱, 아이오와, 미국

위도: 41-24N, 경도: 095-03W, 고도: 360m

현재 날씨관측

예보는 13분 전, 07:35시(UTC)에 발표되었습니다.
동남동8kt, 순간 최대 풍속 15kt풍과 풍을 오가는
온도 8°C
습도 66%
기압 1014 hPa
시정: 16.1km
고도 1800ft 상공 구름 조금
고도 3700ft 상공 구름 많음
고도 11000ft 상공 흐림

METAR: KAIO 010735Z AUTO 12008G15KT 100V180 10SM FEW018 BKN037 OVC110 08/02 A2993 RMK AO2

시각: 02:48 (07:48 UTC)


TAF: 누락

4,000개 이상의 공항 관측 자료 및 예보 (METAR 및 TAF 보고).

지도상에서 검색 가능한 기상관측소가 노란 점과 빨간 점으로 표시되어 있습니다.

기상관측소 명을 보려면 표시 위로 마우스를 이동하세요.

날씨 관측과 예보를 보려면 클릭하세요.

지도 변경 : 확대하려면 엑스 표시가 있는 녹색 버튼, 축소하려면 빼기 표시가 있는 녹색 버튼, 다음 페이지의 지도를 보려면 녹색 화살표를 클릭하세요.


METAR-TAF: